sensor_id;sensor_type;location;lat;lon;timestamp;P1;durP1;ratioP1;P2;durP2;ratioP2
69305;SDS011;56427;51.580;4.656;2023-09-19T00:00:22;9.23;;;2.30;;
69305;SDS011;56427;51.580;4.656;2023-09-19T00:02:55;14.63;;;2.40;;
69305;SDS011;56427;51.580;4.656;2023-09-19T00:05:24;11.68;;;2.15;;
69305;SDS011;56427;51.580;4.656;2023-09-19T00:07:54;11.13;;;2.27;;
69305;SDS011;56427;51.580;4.656;2023-09-19T00:10:30;16.48;;;2.50;;
69305;SDS011;56427;51.580;4.656;2023-09-19T00:12:59;10.85;;;2.20;;
69305;SDS011;56427;51.580;4.656;2023-09-19T00:18:47;12.07;;;2.38;;
69305;SDS011;56427;51.580;4.656;2023-09-19T00:21:14;10.13;;;1.90;;
69305;SDS011;56427;51.580;4.656;2023-09-19T00:23:40;12.77;;;2.20;;
69305;SDS011;56427;51.580;4.656;2023-09-19T00:26:06;8.93;;;2.15;;
69305;SDS011;56427;51.580;4.656;2023-09-19T00:28:31;11.93;;;2.33;;
69305;SDS011;56427;51.580;4.656;2023-09-19T00:30:57;12.77;;;2.40;;
69305;SDS011;56427;51.580;4.656;2023-09-19T00:33:26;11.57;;;1.80;;
69305;SDS011;56427;51.580;4.656;2023-09-19T00:35:52;11.40;;;2.03;;
69305;SDS011;56427;51.580;4.656;2023-09-19T00:38:19;10.20;;;2.13;;
69305;SDS011;56427;51.580;4.656;2023-09-19T00:40:52;11.75;;;2.35;;
69305;SDS011;56427;51.580;4.656;2023-09-19T00:43:18;12.52;;;2.35;;
69305;SDS011;56427;51.580;4.656;2023-09-19T00:45:45;15.30;;;2.40;;
69305;SDS011;56427;51.580;4.656;2023-09-19T00:48:13;9.73;;;1.83;;
69305;SDS011;56427;51.580;4.656;2023-09-19T00:50:39;10.32;;;2.10;;
69305;SDS011;56427;51.580;4.656;2023-09-19T00:53:07;10.43;;;2.08;;
69305;SDS011;56427;51.580;4.656;2023-09-19T00:55:38;11.48;;;1.73;;
69305;SDS011;56427;51.580;4.656;2023-09-19T00:58:04;10.88;;;2.03;;
69305;SDS011;56427;51.580;4.656;2023-09-19T01:00:33;7.90;;;1.80;;
69305;SDS011;56427;51.580;4.656;2023-09-19T01:02:59;11.65;;;2.22;;
69305;SDS011;56427;51.580;4.656;2023-09-19T01:05:28;14.07;;;2.20;;
69305;SDS011;56427;51.580;4.656;2023-09-19T01:07:55;9.77;;;1.73;;
69305;SDS011;56427;51.580;4.656;2023-09-19T01:10:21;13.17;;;2.30;;
69305;SDS011;56427;51.580;4.656;2023-09-19T01:12:49;10.10;;;2.15;;
69305;SDS011;56427;51.580;4.656;2023-09-19T01:15:21;10.05;;;2.20;;
69305;SDS011;56427;51.580;4.656;2023-09-19T01:32:05;12.55;;;2.00;;
69305;SDS011;56427;51.580;4.656;2023-09-19T01:37:29;10.20;;;2.23;;
69305;SDS011;56427;51.580;4.656;2023-09-19T01:40:03;16.33;;;2.67;;
69305;SDS011;56427;51.580;4.656;2023-09-19T01:47:52;10.40;;;2.00;;
69305;SDS011;56427;51.580;4.656;2023-09-19T01:50:34;11.47;;;2.00;;
69305;SDS011;56427;51.580;4.656;2023-09-19T01:53:21;12.57;;;2.15;;
69305;SDS011;56427;51.580;4.656;2023-09-19T01:55:50;12.68;;;2.13;;
69305;SDS011;56427;51.580;4.656;2023-09-19T01:58:20;12.15;;;2.13;;
69305;SDS011;56427;51.580;4.656;2023-09-19T02:00:51;13.57;;;2.58;;
69305;SDS011;56427;51.580;4.656;2023-09-19T02:03:17;12.57;;;2.27;;
69305;SDS011;56427;51.580;4.656;2023-09-19T02:05:50;11.73;;;2.13;;
69305;SDS011;56427;51.580;4.656;2023-09-19T02:08:19;15.20;;;2.47;;
69305;SDS011;56427;51.580;4.656;2023-09-19T02:10:46;10.27;;;2.17;;
69305;SDS011;56427;51.580;4.656;2023-09-19T02:13:17;9.05;;;1.80;;
69305;SDS011;56427;51.580;4.656;2023-09-19T02:15:47;12.67;;;2.17;;
69305;SDS011;56427;51.580;4.656;2023-09-19T02:18:13;13.05;;;2.15;;
69305;SDS011;56427;51.580;4.656;2023-09-19T02:20:39;11.82;;;2.25;;
69305;SDS011;56427;51.580;4.656;2023-09-19T02:23:05;12.50;;;2.17;;
69305;SDS011;56427;51.580;4.656;2023-09-19T02:25:31;10.23;;;2.30;;
69305;SDS011;56427;51.580;4.656;2023-09-19T02:27:57;10.70;;;2.17;;
69305;SDS011;56427;51.580;4.656;2023-09-19T02:30:28;9.52;;;2.28;;
69305;SDS011;56427;51.580;4.656;2023-09-19T02:32:54;12.88;;;3.00;;
69305;SDS011;56427;51.580;4.656;2023-09-19T02:35:19;14.60;;;2.30;;
69305;SDS011;56427;51.580;4.656;2023-09-19T02:37:45;16.90;;;3.58;;
69305;SDS011;56427;51.580;4.656;2023-09-19T02:40:11;13.13;;;2.72;;
69305;SDS011;56427;51.580;4.656;2023-09-19T02:42:54;13.60;;;2.23;;
69305;SDS011;56427;51.580;4.656;2023-09-19T02:45:21;14.90;;;2.72;;
69305;SDS011;56427;51.580;4.656;2023-09-19T02:47:47;11.77;;;2.05;;
69305;SDS011;56427;51.580;4.656;2023-09-19T02:50:13;11.97;;;2.33;;
69305;SDS011;56427;51.580;4.656;2023-09-19T02:52:41;10.98;;;2.58;;
69305;SDS011;56427;51.580;4.656;2023-09-19T02:55:11;10.80;;;2.20;;
69305;SDS011;56427;51.580;4.656;2023-09-19T02:57:39;17.45;;;2.50;;
69305;SDS011;56427;51.580;4.656;2023-09-19T03:00:08;12.85;;;2.13;;
69305;SDS011;56427;51.580;4.656;2023-09-19T03:02:37;10.70;;;2.40;;
69305;SDS011;56427;51.580;4.656;2023-09-19T03:05:05;9.20;;;2.20;;
69305;SDS011;56427;51.580;4.656;2023-09-19T03:07:31;10.68;;;2.08;;
69305;SDS011;56427;51.580;4.656;2023-09-19T03:09:56;11.95;;;2.25;;
69305;SDS011;56427;51.580;4.656;2023-09-19T03:12:22;10.33;;;2.73;;
69305;SDS011;56427;51.580;4.656;2023-09-19T03:14:47;9.13;;;2.03;;
69305;SDS011;56427;51.580;4.656;2023-09-19T03:17:13;10.25;;;2.08;;
69305;SDS011;56427;51.580;4.656;2023-09-19T03:19:39;8.40;;;1.97;;
69305;SDS011;56427;51.580;4.656;2023-09-19T03:22:05;10.60;;;2.25;;
69305;SDS011;56427;51.580;4.656;2023-09-19T03:24:31;7.13;;;1.80;;
69305;SDS011;56427;51.580;4.656;2023-09-19T03:26:58;8.32;;;2.15;;
69305;SDS011;56427;51.580;4.656;2023-09-19T03:29:23;10.73;;;2.47;;
69305;SDS011;56427;51.580;4.656;2023-09-19T03:31:50;10.32;;;1.65;;
69305;SDS011;56427;51.580;4.656;2023-09-19T03:34:15;8.37;;;1.73;;
69305;SDS011;56427;51.580;4.656;2023-09-19T03:36:41;11.57;;;2.10;;
69305;SDS011;56427;51.580;4.656;2023-09-19T03:39:07;9.93;;;2.47;;
69305;SDS011;56427;51.580;4.656;2023-09-19T03:41:32;11.95;;;1.85;;
69305;SDS011;56427;51.580;4.656;2023-09-19T03:43:58;11.77;;;1.87;;
69305;SDS011;56427;51.580;4.656;2023-09-19T03:46:24;12.48;;;1.98;;
69305;SDS011;56427;51.580;4.656;2023-09-19T03:48:50;8.70;;;1.70;;
69305;SDS011;56427;51.580;4.656;2023-09-19T03:51:15;15.50;;;3.47;;
69305;SDS011;56427;51.580;4.656;2023-09-19T03:53:41;15.10;;;2.95;;
69305;SDS011;56427;51.580;4.656;2023-09-19T03:56:06;12.47;;;2.27;;
69305;SDS011;56427;51.580;4.656;2023-09-19T03:58:33;12.88;;;2.50;;
69305;SDS011;56427;51.580;4.656;2023-09-19T04:01:03;9.73;;;2.17;;
69305;SDS011;56427;51.580;4.656;2023-09-19T04:03:28;10.90;;;2.17;;
69305;SDS011;56427;51.580;4.656;2023-09-19T04:06:00;12.07;;;2.40;;
69305;SDS011;56427;51.580;4.656;2023-09-19T04:08:27;9.52;;;2.13;;
69305;SDS011;56427;51.580;4.656;2023-09-19T04:10:53;9.20;;;2.33;;
69305;SDS011;56427;51.580;4.656;2023-09-19T04:13:19;16.35;;;2.83;;
69305;SDS011;56427;51.580;4.656;2023-09-19T04:15:44;12.37;;;2.33;;
69305;SDS011;56427;51.580;4.656;2023-09-19T04:18:11;8.93;;;1.98;;
69305;SDS011;56427;51.580;4.656;2023-09-19T04:20:37;11.97;;;1.70;;
69305;SDS011;56427;51.580;4.656;2023-09-19T04:23:02;10.57;;;2.73;;
69305;SDS011;56427;51.580;4.656;2023-09-19T04:25:30;16.05;;;3.55;;
69305;SDS011;56427;51.580;4.656;2023-09-19T04:27:56;10.15;;;2.10;;
69305;SDS011;56427;51.580;4.656;2023-09-19T04:30:24;11.15;;;1.90;;
69305;SDS011;56427;51.580;4.656;2023-09-19T04:32:49;15.00;;;2.57;;
69305;SDS011;56427;51.580;4.656;2023-09-19T04:35:15;13.00;;;2.13;;
69305;SDS011;56427;51.580;4.656;2023-09-19T04:37:41;12.67;;;2.30;;
69305;SDS011;56427;51.580;4.656;2023-09-19T04:40:10;11.73;;;2.17;;
69305;SDS011;56427;51.580;4.656;2023-09-19T04:42:44;20.83;;;2.80;;
69305;SDS011;56427;51.580;4.656;2023-09-19T04:45:22;8.00;;;2.13;;
69305;SDS011;56427;51.580;4.656;2023-09-19T04:47:48;12.70;;;2.30;;
69305;SDS011;56427;51.580;4.656;2023-09-19T04:50:13;11.10;;;2.17;;
69305;SDS011;56427;51.580;4.656;2023-09-19T04:52:40;12.07;;;2.27;;
69305;SDS011;56427;51.580;4.656;2023-09-19T04:55:12;13.10;;;2.03;;
69305;SDS011;56427;51.580;4.656;2023-09-19T04:57:42;11.23;;;2.78;;
69305;SDS011;56427;51.580;4.656;2023-09-19T05:00:21;12.38;;;2.15;;
69305;SDS011;56427;51.580;4.656;2023-09-19T05:02:53;9.23;;;2.00;;
69305;SDS011;56427;51.580;4.656;2023-09-19T05:05:24;15.10;;;2.27;;
69305;SDS011;56427;51.580;4.656;2023-09-19T05:07:51;8.80;;;1.90;;
69305;SDS011;56427;51.580;4.656;2023-09-19T05:10:18;12.57;;;2.30;;
69305;SDS011;56427;51.580;4.656;2023-09-19T05:12:44;18.23;;;2.93;;
69305;SDS011;56427;51.580;4.656;2023-09-19T05:15:13;11.17;;;2.63;;
69305;SDS011;56427;51.580;4.656;2023-09-19T05:17:49;14.70;;;2.30;;
69305;SDS011;56427;51.580;4.656;2023-09-19T05:20:16;9.70;;;2.10;;
69305;SDS011;56427;51.580;4.656;2023-09-19T05:22:43;10.07;;;2.28;;
69305;SDS011;56427;51.580;4.656;2023-09-19T05:25:11;15.35;;;2.45;;
69305;SDS011;56427;51.580;4.656;2023-09-19T05:27:42;11.27;;;2.57;;
69305;SDS011;56427;51.580;4.656;2023-09-19T05:30:08;10.65;;;2.17;;
69305;SDS011;56427;51.580;4.656;2023-09-19T05:32:35;12.57;;;2.10;;
69305;SDS011;56427;51.580;4.656;2023-09-19T05:35:00;13.87;;;2.70;;
69305;SDS011;56427;51.580;4.656;2023-09-19T05:37:26;11.00;;;1.92;;
69305;SDS011;56427;51.580;4.656;2023-09-19T05:39:51;9.07;;;1.80;;
69305;SDS011;56427;51.580;4.656;2023-09-19T05:42:19;16.42;;;2.70;;
69305;SDS011;56427;51.580;4.656;2023-09-19T05:44:44;13.77;;;2.10;;
69305;SDS011;56427;51.580;4.656;2023-09-19T05:47:10;12.97;;;2.70;;
69305;SDS011;56427;51.580;4.656;2023-09-19T05:49:35;12.18;;;2.65;;
69305;SDS011;56427;51.580;4.656;2023-09-19T05:52:06;13.23;;;2.33;;
69305;SDS011;56427;51.580;4.656;2023-09-19T05:54:32;16.10;;;2.47;;
69305;SDS011;56427;51.580;4.656;2023-09-19T05:56:59;9.70;;;2.15;;
69305;SDS011;56427;51.580;4.656;2023-09-19T05:59:25;8.60;;;2.20;;
69305;SDS011;56427;51.580;4.656;2023-09-19T06:01:51;13.40;;;2.77;;
69305;SDS011;56427;51.580;4.656;2023-09-19T06:04:17;14.52;;;2.72;;
69305;SDS011;56427;51.580;4.656;2023-09-19T06:06:44;11.45;;;2.15;;
69305;SDS011;56427;51.580;4.656;2023-09-19T06:09:10;13.38;;;2.63;;
69305;SDS011;56427;51.580;4.656;2023-09-19T06:11:35;11.07;;;2.57;;
69305;SDS011;56427;51.580;4.656;2023-09-19T06:14:04;13.35;;;2.47;;
69305;SDS011;56427;51.580;4.656;2023-09-19T06:16:30;12.23;;;2.67;;
69305;SDS011;56427;51.580;4.656;2023-09-19T06:18:57;12.40;;;2.15;;
69305;SDS011;56427;51.580;4.656;2023-09-19T06:21:24;10.15;;;2.25;;
69305;SDS011;56427;51.580;4.656;2023-09-19T06:23:52;10.77;;;2.10;;
69305;SDS011;56427;51.580;4.656;2023-09-19T06:26:18;14.73;;;2.45;;
69305;SDS011;56427;51.580;4.656;2023-09-19T06:28:44;11.27;;;2.20;;
69305;SDS011;56427;51.580;4.656;2023-09-19T06:31:10;11.95;;;1.98;;
69305;SDS011;56427;51.580;4.656;2023-09-19T06:33:36;15.37;;;2.60;;
69305;SDS011;56427;51.580;4.656;2023-09-19T06:36:05;12.63;;;2.28;;
69305;SDS011;56427;51.580;4.656;2023-09-19T06:38:32;14.52;;;2.70;;
69305;SDS011;56427;51.580;4.656;2023-09-19T06:41:00;14.88;;;2.65;;
69305;SDS011;56427;51.580;4.656;2023-09-19T06:43:31;14.95;;;2.05;;
69305;SDS011;56427;51.580;4.656;2023-09-19T06:45:57;13.20;;;3.20;;
69305;SDS011;56427;51.580;4.656;2023-09-19T06:48:24;12.20;;;2.53;;
69305;SDS011;56427;51.580;4.656;2023-09-19T06:50:50;11.43;;;3.13;;
69305;SDS011;56427;51.580;4.656;2023-09-19T06:53:16;16.47;;;2.20;;
69305;SDS011;56427;51.580;4.656;2023-09-19T06:55:41;13.38;;;2.53;;
69305;SDS011;56427;51.580;4.656;2023-09-19T06:58:09;13.15;;;2.63;;
69305;SDS011;56427;51.580;4.656;2023-09-19T07:00:36;13.57;;;2.43;;
69305;SDS011;56427;51.580;4.656;2023-09-19T07:03:04;14.93;;;2.40;;
69305;SDS011;56427;51.580;4.656;2023-09-19T07:05:34;10.85;;;2.40;;
69305;SDS011;56427;51.580;4.656;2023-09-19T07:08:07;10.98;;;2.20;;
69305;SDS011;56427;51.580;4.656;2023-09-19T07:10:35;16.55;;;3.28;;
69305;SDS011;56427;51.580;4.656;2023-09-19T07:13:04;14.40;;;2.80;;
69305;SDS011;56427;51.580;4.656;2023-09-19T07:15:37;12.40;;;2.58;;
69305;SDS011;56427;51.580;4.656;2023-09-19T07:18:06;16.88;;;3.28;;
69305;SDS011;56427;51.580;4.656;2023-09-19T07:20:36;15.50;;;2.77;;
69305;SDS011;56427;51.580;4.656;2023-09-19T07:23:02;13.23;;;2.72;;
69305;SDS011;56427;51.580;4.656;2023-09-19T07:25:27;15.15;;;2.65;;
69305;SDS011;56427;51.580;4.656;2023-09-19T07:27:56;12.23;;;2.67;;
69305;SDS011;56427;51.580;4.656;2023-09-19T07:30:25;14.20;;;2.33;;
69305;SDS011;56427;51.580;4.656;2023-09-19T07:32:51;13.95;;;2.40;;
69305;SDS011;56427;51.580;4.656;2023-09-19T07:35:17;12.85;;;2.65;;
69305;SDS011;56427;51.580;4.656;2023-09-19T07:37:45;13.65;;;2.40;;
69305;SDS011;56427;51.580;4.656;2023-09-19T07:40:14;15.07;;;2.60;;
69305;SDS011;56427;51.580;4.656;2023-09-19T07:42:40;13.85;;;3.03;;
69305;SDS011;56427;51.580;4.656;2023-09-19T07:45:06;15.90;;;2.70;;
69305;SDS011;56427;51.580;4.656;2023-09-19T07:47:33;12.55;;;2.88;;
69305;SDS011;56427;51.580;4.656;2023-09-19T07:50:01;14.10;;;2.50;;
69305;SDS011;56427;51.580;4.656;2023-09-19T07:52:28;17.00;;;3.17;;
69305;SDS011;56427;51.580;4.656;2023-09-19T07:54:54;9.85;;;2.30;;
69305;SDS011;56427;51.580;4.656;2023-09-19T07:57:22;10.32;;;2.42;;
69305;SDS011;56427;51.580;4.656;2023-09-19T07:59:48;15.23;;;2.83;;
69305;SDS011;56427;51.580;4.656;2023-09-19T08:02:13;14.43;;;2.28;;
69305;SDS011;56427;51.580;4.656;2023-09-19T08:04:44;13.23;;;2.83;;
69305;SDS011;56427;51.580;4.656;2023-09-19T08:07:14;13.70;;;2.80;;
69305;SDS011;56427;51.580;4.656;2023-09-19T08:09:40;15.38;;;2.40;;
69305;SDS011;56427;51.580;4.656;2023-09-19T08:12:06;13.43;;;2.53;;
69305;SDS011;56427;51.580;4.656;2023-09-19T08:14:33;13.40;;;2.30;;
69305;SDS011;56427;51.580;4.656;2023-09-19T08:16:59;15.32;;;2.50;;
69305;SDS011;56427;51.580;4.656;2023-09-19T08:19:25;16.30;;;2.70;;
69305;SDS011;56427;51.580;4.656;2023-09-19T08:21:56;16.37;;;2.50;;
69305;SDS011;56427;51.580;4.656;2023-09-19T08:24:26;15.85;;;2.45;;
69305;SDS011;56427;51.580;4.656;2023-09-19T08:26:53;14.95;;;3.08;;
69305;SDS011;56427;51.580;4.656;2023-09-19T08:29:20;16.85;;;3.80;;
69305;SDS011;56427;51.580;4.656;2023-09-19T08:31:45;18.43;;;2.63;;
69305;SDS011;56427;51.580;4.656;2023-09-19T08:34:14;12.85;;;2.72;;
69305;SDS011;56427;51.580;4.656;2023-09-19T08:36:40;11.55;;;2.45;;
69305;SDS011;56427;51.580;4.656;2023-09-19T08:39:08;13.40;;;2.13;;
69305;SDS011;56427;51.580;4.656;2023-09-19T08:41:34;16.43;;;3.70;;
69305;SDS011;56427;51.580;4.656;2023-09-19T08:43:59;12.23;;;3.00;;
69305;SDS011;56427;51.580;4.656;2023-09-19T08:46:29;17.20;;;2.40;;
69305;SDS011;56427;51.580;4.656;2023-09-19T08:49:07;13.15;;;2.67;;
69305;SDS011;56427;51.580;4.656;2023-09-19T08:51:45;14.55;;;2.47;;
69305;SDS011;56427;51.580;4.656;2023-09-19T08:54:22;9.82;;;2.75;;
69305;SDS011;56427;51.580;4.656;2023-09-19T08:56:53;11.80;;;2.20;;
69305;SDS011;56427;51.580;4.656;2023-09-19T08:59:22;13.50;;;2.72;;
69305;SDS011;56427;51.580;4.656;2023-09-19T09:01:49;10.43;;;2.60;;
69305;SDS011;56427;51.580;4.656;2023-09-19T09:04:18;14.70;;;2.53;;
69305;SDS011;56427;51.580;4.656;2023-09-19T09:06:45;12.05;;;2.53;;
69305;SDS011;56427;51.580;4.656;2023-09-19T09:09:14;12.80;;;2.70;;
69305;SDS011;56427;51.580;4.656;2023-09-19T09:11:40;11.90;;;1.83;;
69305;SDS011;56427;51.580;4.656;2023-09-19T09:14:06;12.27;;;2.50;;
69305;SDS011;56427;51.580;4.656;2023-09-19T09:16:36;8.52;;;2.42;;
69305;SDS011;56427;51.580;4.656;2023-09-19T09:19:01;17.35;;;2.85;;
69305;SDS011;56427;51.580;4.656;2023-09-19T09:21:27;12.37;;;2.30;;
69305;SDS011;56427;51.580;4.656;2023-09-19T09:23:53;12.23;;;2.40;;
69305;SDS011;56427;51.580;4.656;2023-09-19T09:29:03;8.85;;;2.60;;
69305;SDS011;56427;51.580;4.656;2023-09-19T09:31:29;16.43;;;2.77;;
69305;SDS011;56427;51.580;4.656;2023-09-19T09:33:55;12.83;;;2.27;;
69305;SDS011;56427;51.580;4.656;2023-09-19T09:36:35;12.77;;;2.10;;
69305;SDS011;56427;51.580;4.656;2023-09-19T09:39:02;13.65;;;2.28;;
69305;SDS011;56427;51.580;4.656;2023-09-19T09:41:41;14.10;;;2.50;;
69305;SDS011;56427;51.580;4.656;2023-09-19T09:44:15;9.38;;;2.03;;
69305;SDS011;56427;51.580;4.656;2023-09-19T09:46:48;11.93;;;2.57;;
69305;SDS011;56427;51.580;4.656;2023-09-19T09:49:18;10.32;;;2.10;;
69305;SDS011;56427;51.580;4.656;2023-09-19T09:51:58;10.02;;;2.65;;
69305;SDS011;56427;51.580;4.656;2023-09-19T09:54:32;10.48;;;2.30;;
69305;SDS011;56427;51.580;4.656;2023-09-19T09:57:04;8.73;;;2.08;;
69305;SDS011;56427;51.580;4.656;2023-09-19T10:02:16;11.88;;;1.88;;
69305;SDS011;56427;51.580;4.656;2023-09-19T10:04:49;9.43;;;2.00;;
69305;SDS011;56427;51.580;4.656;2023-09-19T10:07:34;9.82;;;1.95;;
69305;SDS011;56427;51.580;4.656;2023-09-19T10:10:32;9.50;;;1.95;;
69305;SDS011;56427;51.580;4.656;2023-09-19T10:13:06;10.43;;;1.93;;
69305;SDS011;56427;51.580;4.656;2023-09-19T10:15:37;7.30;;;1.83;;
69305;SDS011;56427;51.580;4.656;2023-09-19T10:18:06;10.48;;;2.08;;
69305;SDS011;56427;51.580;4.656;2023-09-19T10:20:36;10.60;;;2.00;;
69305;SDS011;56427;51.580;4.656;2023-09-19T10:23:07;10.23;;;2.05;;
69305;SDS011;56427;51.580;4.656;2023-09-19T10:25:36;9.67;;;1.70;;
69305;SDS011;56427;51.580;4.656;2023-09-19T10:28:05;9.65;;;1.75;;
69305;SDS011;56427;51.580;4.656;2023-09-19T10:30:36;8.15;;;1.58;;
69305;SDS011;56427;51.580;4.656;2023-09-19T10:33:04;6.00;;;1.45;;
69305;SDS011;56427;51.580;4.656;2023-09-19T10:35:32;14.88;;;1.77;;
69305;SDS011;56427;51.580;4.656;2023-09-19T10:38:03;9.67;;;1.40;;
69305;SDS011;56427;51.580;4.656;2023-09-19T10:40:32;5.95;;;1.50;;
69305;SDS011;56427;51.580;4.656;2023-09-19T10:43:04;8.52;;;1.58;;
69305;SDS011;56427;51.580;4.656;2023-09-19T10:45:31;6.05;;;1.50;;
69305;SDS011;56427;51.580;4.656;2023-09-19T10:47:58;7.07;;;1.60;;
69305;SDS011;56427;51.580;4.656;2023-09-19T10:50:24;9.00;;;1.63;;
69305;SDS011;56427;51.580;4.656;2023-09-19T10:52:56;7.07;;;1.75;;
69305;SDS011;56427;51.580;4.656;2023-09-19T10:55:29;6.70;;;1.30;;
69305;SDS011;56427;51.580;4.656;2023-09-19T10:57:56;9.63;;;1.85;;
69305;SDS011;56427;51.580;4.656;2023-09-19T11:00:58;6.60;;;1.35;;
69305;SDS011;56427;51.580;4.656;2023-09-19T11:03:30;8.47;;;1.40;;
69305;SDS011;56427;51.580;4.656;2023-09-19T11:08:26;5.40;;;1.30;;
69305;SDS011;56427;51.580;4.656;2023-09-19T11:10:52;7.18;;;1.55;;
69305;SDS011;56427;51.580;4.656;2023-09-19T11:13:25;5.82;;;1.27;;
69305;SDS011;56427;51.580;4.656;2023-09-19T11:26:50;6.68;;;1.30;;
69305;SDS011;56427;51.580;4.656;2023-09-19T11:29:29;5.83;;;1.40;;
69305;SDS011;56427;51.580;4.656;2023-09-19T11:31:56;6.65;;;1.33;;
69305;SDS011;56427;51.580;4.656;2023-09-19T11:40:07;8.63;;;1.50;;
69305;SDS011;56427;51.580;4.656;2023-09-19T11:42:47;6.40;;;1.23;;
69305;SDS011;56427;51.580;4.656;2023-09-19T11:46:00;8.82;;;1.60;;
69305;SDS011;56427;51.580;4.656;2023-09-19T11:48:06;5.33;;;1.30;;
69305;SDS011;56427;51.580;4.656;2023-09-19T11:50:32;6.60;;;1.55;;
69305;SDS011;56427;51.580;4.656;2023-09-19T11:53:00;8.57;;;1.45;;
69305;SDS011;56427;51.580;4.656;2023-09-19T11:55:28;5.72;;;1.23;;
69305;SDS011;56427;51.580;4.656;2023-09-19T11:57:59;6.82;;;1.33;;
69305;SDS011;56427;51.580;4.656;2023-09-19T12:00:25;6.30;;;1.10;;
69305;SDS011;56427;51.580;4.656;2023-09-19T12:02:53;7.20;;;1.30;;
69305;SDS011;56427;51.580;4.656;2023-09-19T12:05:29;6.65;;;1.40;;
69305;SDS011;56427;51.580;4.656;2023-09-19T12:07:58;6.35;;;1.40;;
69305;SDS011;56427;51.580;4.656;2023-09-19T12:10:25;6.07;;;1.15;;
69305;SDS011;56427;51.580;4.656;2023-09-19T12:12:51;6.57;;;1.30;;
69305;SDS011;56427;51.580;4.656;2023-09-19T12:15:24;6.68;;;1.30;;
69305;SDS011;56427;51.580;4.656;2023-09-19T12:17:59;5.18;;;1.08;;
69305;SDS011;56427;51.580;4.656;2023-09-19T12:20:24;5.93;;;1.27;;
69305;SDS011;56427;51.580;4.656;2023-09-19T12:22:50;5.03;;;1.37;;
69305;SDS011;56427;51.580;4.656;2023-09-19T12:25:15;7.43;;;1.50;;
69305;SDS011;56427;51.580;4.656;2023-09-19T12:27:43;8.93;;;1.00;;
69305;SDS011;56427;51.580;4.656;2023-09-19T12:30:09;5.47;;;1.37;;
69305;SDS011;56427;51.580;4.656;2023-09-19T12:32:39;5.25;;;1.08;;
69305;SDS011;56427;51.580;4.656;2023-09-19T12:35:08;5.78;;;1.30;;
69305;SDS011;56427;51.580;4.656;2023-09-19T12:37:36;4.70;;;0.98;;
69305;SDS011;56427;51.580;4.656;2023-09-19T12:40:08;5.20;;;1.13;;
69305;SDS011;56427;51.580;4.656;2023-09-19T12:42:47;6.68;;;1.25;;
69305;SDS011;56427;51.580;4.656;2023-09-19T12:45:13;3.63;;;1.13;;
69305;SDS011;56427;51.580;4.656;2023-09-19T12:47:40;5.85;;;1.05;;
69305;SDS011;56427;51.580;4.656;2023-09-19T12:50:29;7.32;;;1.23;;
69305;SDS011;56427;51.580;4.656;2023-09-19T12:52:55;5.47;;;1.20;;
69305;SDS011;56427;51.580;4.656;2023-09-19T12:55:28;4.45;;;0.90;;
69305;SDS011;56427;51.580;4.656;2023-09-19T13:00:43;7.47;;;1.42;;
69305;SDS011;56427;51.580;4.656;2023-09-19T13:03:26;5.53;;;1.17;;
69305;SDS011;56427;51.580;4.656;2023-09-19T13:06:01;7.00;;;1.20;;
69305;SDS011;56427;51.580;4.656;2023-09-19T13:08:38;7.00;;;1.23;;
69305;SDS011;56427;51.580;4.656;2023-09-19T13:16:09;5.68;;;1.65;;
69305;SDS011;56427;51.580;4.656;2023-09-19T13:18:42;5.80;;;1.38;;
69305;SDS011;56427;51.580;4.656;2023-09-19T13:21:12;9.93;;;1.80;;
69305;SDS011;56427;51.580;4.656;2023-09-19T13:24:01;8.37;;;1.27;;
69305;SDS011;56427;51.580;4.656;2023-09-19T13:26:53;7.18;;;1.30;;
69305;SDS011;56427;51.580;4.656;2023-09-19T13:29:18;5.60;;;1.40;;
69305;SDS011;56427;51.580;4.656;2023-09-19T13:31:50;6.70;;;1.27;;
69305;SDS011;56427;51.580;4.656;2023-09-19T13:34:20;6.80;;;1.40;;
69305;SDS011;56427;51.580;4.656;2023-09-19T13:36:46;6.78;;;2.00;;
69305;SDS011;56427;51.580;4.656;2023-09-19T13:39:18;5.82;;;1.40;;
69305;SDS011;56427;51.580;4.656;2023-09-19T13:41:47;7.80;;;2.00;;
69305;SDS011;56427;51.580;4.656;2023-09-19T13:44:14;6.78;;;1.60;;
69305;SDS011;56427;51.580;4.656;2023-09-19T13:46:40;5.17;;;1.80;;
69305;SDS011;56427;51.580;4.656;2023-09-19T13:49:10;5.93;;;1.50;;
69305;SDS011;56427;51.580;4.656;2023-09-19T13:51:36;9.02;;;2.05;;
69305;SDS011;56427;51.580;4.656;2023-09-19T13:54:02;3.93;;;1.50;;
69305;SDS011;56427;51.580;4.656;2023-09-19T13:56:28;8.55;;;1.60;;
69305;SDS011;56427;51.580;4.656;2023-09-19T13:58:53;6.77;;;1.40;;
69305;SDS011;56427;51.580;4.656;2023-09-19T14:01:19;9.45;;;1.98;;
69305;SDS011;56427;51.580;4.656;2023-09-19T14:03:45;9.33;;;1.70;;
69305;SDS011;56427;51.580;4.656;2023-09-19T14:06:14;6.40;;;1.58;;
69305;SDS011;56427;51.580;4.656;2023-09-19T14:08:46;8.13;;;1.95;;
69305;SDS011;56427;51.580;4.656;2023-09-19T14:11:14;8.73;;;1.83;;
69305;SDS011;56427;51.580;4.656;2023-09-19T14:13:41;7.10;;;1.90;;
69305;SDS011;56427;51.580;4.656;2023-09-19T14:16:09;7.03;;;1.60;;
69305;SDS011;56427;51.580;4.656;2023-09-19T14:18:34;7.80;;;1.58;;
69305;SDS011;56427;51.580;4.656;2023-09-19T14:21:06;7.93;;;1.80;;
69305;SDS011;56427;51.580;4.656;2023-09-19T14:23:36;5.03;;;1.60;;
69305;SDS011;56427;51.580;4.656;2023-09-19T14:26:01;7.17;;;1.57;;
69305;SDS011;56427;51.580;4.656;2023-09-19T14:28:27;9.93;;;2.20;;
69305;SDS011;56427;51.580;4.656;2023-09-19T14:30:54;4.93;;;1.25;;
69305;SDS011;56427;51.580;4.656;2023-09-19T14:33:20;4.57;;;1.63;;
69305;SDS011;56427;51.580;4.656;2023-09-19T14:35:45;6.43;;;1.87;;
69305;SDS011;56427;51.580;4.656;2023-09-19T14:38:11;5.17;;;1.23;;
69305;SDS011;56427;51.580;4.656;2023-09-19T14:40:36;7.87;;;1.60;;
69305;SDS011;56427;51.580;4.656;2023-09-19T14:43:02;4.90;;;1.33;;
69305;SDS011;56427;51.580;4.656;2023-09-19T14:45:28;7.95;;;1.73;;
69305;SDS011;56427;51.580;4.656;2023-09-19T14:47:55;5.95;;;1.30;;
69305;SDS011;56427;51.580;4.656;2023-09-19T14:50:21;5.23;;;1.67;;
69305;SDS011;56427;51.580;4.656;2023-09-19T14:52:47;7.18;;;1.60;;
69305;SDS011;56427;51.580;4.656;2023-09-19T14:55:14;6.72;;;1.63;;
69305;SDS011;56427;51.580;4.656;2023-09-19T14:57:41;6.88;;;1.73;;
69305;SDS011;56427;51.580;4.656;2023-09-19T15:00:09;10.13;;;1.70;;
69305;SDS011;56427;51.580;4.656;2023-09-19T15:02:37;7.17;;;1.30;;
69305;SDS011;56427;51.580;4.656;2023-09-19T15:05:04;6.80;;;1.45;;
69305;SDS011;56427;51.580;4.656;2023-09-19T15:07:31;6.60;;;1.67;;
69305;SDS011;56427;51.580;4.656;2023-09-19T15:09:57;6.73;;;1.80;;
69305;SDS011;56427;51.580;4.656;2023-09-19T15:12:22;7.22;;;1.63;;
69305;SDS011;56427;51.580;4.656;2023-09-19T15:14:48;6.65;;;1.65;;
69305;SDS011;56427;51.580;4.656;2023-09-19T15:17:14;6.43;;;1.80;;
69305;SDS011;56427;51.580;4.656;2023-09-19T15:19:40;7.43;;;1.93;;
69305;SDS011;56427;51.580;4.656;2023-09-19T15:22:06;14.10;;;2.00;;
69305;SDS011;56427;51.580;4.656;2023-09-19T15:24:32;5.30;;;1.80;;
69305;SDS011;56427;51.580;4.656;2023-09-19T15:27:01;8.75;;;1.63;;
69305;SDS011;56427;51.580;4.656;2023-09-19T15:29:27;7.53;;;1.85;;
69305;SDS011;56427;51.580;4.656;2023-09-19T15:31:54;10.13;;;1.80;;
69305;SDS011;56427;51.580;4.656;2023-09-19T15:34:23;6.65;;;1.83;;
69305;SDS011;56427;51.580;4.656;2023-09-19T15:36:49;8.18;;;1.80;;
69305;SDS011;56427;51.580;4.656;2023-09-19T15:39:15;6.83;;;1.90;;
69305;SDS011;56427;51.580;4.656;2023-09-19T15:41:41;7.15;;;1.67;;
69305;SDS011;56427;51.580;4.656;2023-09-19T15:44:13;5.00;;;1.42;;
69305;SDS011;56427;51.580;4.656;2023-09-19T15:46:40;5.80;;;1.80;;